createdAt,value
2023-04-06T00:01:16.187Z,10.80
2023-04-06T00:03:42.640Z,14.63
2023-04-06T00:06:09.236Z,13.68
2023-04-06T00:08:35.712Z,9.07
2023-04-06T00:11:02.149Z,9.27
2023-04-06T00:13:28.576Z,9.95
2023-04-06T00:15:54.966Z,9.95
2023-04-06T00:18:21.504Z,10.15
2023-04-06T00:20:47.843Z,12.05
2023-04-06T00:23:14.312Z,10.13
2023-04-06T00:25:43.230Z,11.93
2023-04-06T00:28:09.686Z,12.82
2023-04-06T00:30:36.196Z,10.98
2023-04-06T00:33:02.704Z,8.73
2023-04-06T00:35:29.081Z,9.48
2023-04-06T00:37:55.498Z,10.90
2023-04-06T00:40:21.884Z,11.23
2023-04-06T00:42:48.331Z,7.70
2023-04-06T00:45:14.756Z,12.05
2023-04-06T00:47:41.342Z,8.88
2023-04-06T00:50:07.985Z,10.38
2023-04-06T00:52:34.930Z,10.07
2023-04-06T00:55:01.345Z,7.70
2023-04-06T00:57:27.778Z,9.48
2023-04-06T00:59:54.337Z,10.65
2023-04-06T01:02:21.058Z,9.77
2023-04-06T01:04:47.481Z,13.48
2023-04-06T01:07:13.910Z,8.55
2023-04-06T01:09:42.803Z,7.88
2023-04-06T01:12:09.354Z,7.30
2023-04-06T01:14:35.889Z,14.80
2023-04-06T01:17:02.364Z,9.20
2023-04-06T01:19:28.929Z,12.82
2023-04-06T01:21:56.072Z,8.43
2023-04-06T01:24:22.592Z,8.88
2023-04-06T01:26:49.144Z,8.35
2023-04-06T01:29:15.887Z,9.68
2023-04-06T01:31:42.561Z,11.45
2023-04-06T01:34:08.977Z,9.68
2023-04-06T01:36:35.575Z,17.25
2023-04-06T01:39:01.984Z,9.88
2023-04-06T01:41:28.369Z,9.85
2023-04-06T01:43:55.635Z,9.88
2023-04-06T01:46:22.107Z,11.40
2023-04-06T01:48:48.541Z,9.07
2023-04-06T01:51:14.976Z,10.50
2023-04-06T01:53:41.691Z,9.82
2023-04-06T01:56:08.070Z,9.30
2023-04-06T01:58:34.625Z,10.05
2023-04-06T02:01:01.222Z,9.70
2023-04-06T02:03:27.659Z,9.93
2023-04-06T02:05:54.025Z,11.88
2023-04-06T02:08:20.414Z,8.10
2023-04-06T02:10:46.886Z,9.13
2023-04-06T02:13:13.382Z,10.65
2023-04-06T02:15:39.792Z,8.27
2023-04-06T02:18:06.556Z,8.45
2023-04-06T02:20:33.002Z,10.38
2023-04-06T02:23:01.401Z,8.52
2023-04-06T02:25:27.924Z,10.77
2023-04-06T02:27:54.458Z,17.63
2023-04-06T02:30:20.917Z,10.13
2023-04-06T02:32:47.397Z,14.88
2023-04-06T02:35:13.855Z,12.25
2023-04-06T02:37:40.248Z,9.63
2023-04-06T02:40:07.258Z,11.00
2023-04-06T02:42:33.954Z,9.35
2023-04-06T02:45:00.349Z,15.70
2023-04-06T02:47:27.110Z,12.70
2023-04-06T02:49:56.075Z,12.88
2023-04-06T02:52:22.441Z,12.15
2023-04-06T02:54:48.878Z,10.38
2023-04-06T02:57:15.255Z,11.57
2023-04-06T02:59:41.736Z,11.30
2023-04-06T03:02:08.181Z,12.40
2023-04-06T03:04:34.629Z,9.13
2023-04-06T03:07:01.580Z,12.68
2023-04-06T03:09:28.440Z,13.85
2023-04-06T03:11:54.829Z,9.85
2023-04-06T03:14:23.191Z,11.32
2023-04-06T03:16:49.934Z,11.10
2023-04-06T03:19:16.583Z,9.45
2023-04-06T03:21:42.996Z,11.13
2023-04-06T03:24:09.422Z,11.55
2023-04-06T03:26:38.216Z,9.27
2023-04-06T03:29:04.663Z,10.98
2023-04-06T03:31:31.264Z,11.40
2023-04-06T03:33:57.848Z,11.63
2023-04-06T03:36:29.639Z,12.50
2023-04-06T03:38:56.169Z,11.23
2023-04-06T03:41:22.807Z,12.10
2023-04-06T03:43:49.264Z,16.42
2023-04-06T03:46:15.903Z,10.57
2023-04-06T03:48:42.384Z,14.93
2023-04-06T03:51:08.764Z,17.05
2023-04-06T03:53:35.215Z,16.95
2023-04-06T03:56:04.165Z,14.68
2023-04-06T03:58:31.786Z,11.38
2023-04-06T04:00:58.159Z,11.82
2023-04-06T04:03:24.878Z,16.05
2023-04-06T04:05:51.986Z,17.15
2023-04-06T04:08:18.385Z,13.00
2023-04-06T04:10:44.766Z,12.35
2023-04-06T04:13:11.278Z,8.68
2023-04-06T04:15:37.731Z,12.80
2023-04-06T04:18:04.362Z,11.38
2023-04-06T04:20:30.825Z,11.35
2023-04-06T04:23:00.095Z,16.17
2023-04-06T04:25:26.501Z,14.18
2023-04-06T04:27:52.873Z,51.25
2023-04-06T04:30:19.299Z,32.15
2023-04-06T04:32:45.868Z,36.67
2023-04-06T04:35:14.509Z,24.35
2023-04-06T04:37:41.764Z,27.63
2023-04-06T04:40:08.477Z,28.45
2023-04-06T04:42:34.930Z,32.97
2023-04-06T04:45:01.462Z,26.45
2023-04-06T04:47:27.917Z,26.33
2023-04-06T04:49:54.379Z,24.50
2023-04-06T04:52:20.815Z,21.95
2023-04-06T04:54:48.109Z,19.25
2023-04-06T04:57:14.588Z,19.15
2023-04-06T04:59:41.134Z,21.70
2023-04-06T05:02:07.700Z,21.65
2023-04-06T05:04:34.186Z,34.92
2023-04-06T05:07:07.482Z,28.75
2023-04-06T05:09:33.979Z,29.27
2023-04-06T05:12:01.261Z,29.60
2023-04-06T05:14:28.081Z,30.50
2023-04-06T05:16:54.955Z,32.90
2023-04-06T05:19:21.459Z,34.88
2023-04-06T05:21:47.929Z,32.38
2023-04-06T05:24:14.323Z,25.60
2023-04-06T05:26:40.811Z,21.77
2023-04-06T05:29:07.548Z,21.77
2023-04-06T05:31:34.268Z,21.02
2023-04-06T05:34:01.002Z,17.02
2023-04-06T05:36:27.380Z,20.35
2023-04-06T05:38:53.943Z,22.40
2023-04-06T05:41:21.431Z,20.90
2023-04-06T05:43:47.846Z,16.25
2023-04-06T05:46:16.742Z,16.83
2023-04-06T05:48:43.229Z,20.45
2023-04-06T05:51:09.597Z,21.88
2023-04-06T05:53:36.115Z,20.38
2023-04-06T05:56:03.275Z,19.90
2023-04-06T05:58:30.074Z,23.20
2023-04-06T06:01:03.826Z,15.75
2023-04-06T06:03:30.877Z,20.52
2023-04-06T06:06:01.592Z,21.27
2023-04-06T06:08:28.182Z,19.00
2023-04-06T06:10:55.090Z,19.27
2023-04-06T06:13:21.885Z,22.17
2023-04-06T06:15:48.315Z,16.17
2023-04-06T06:18:14.958Z,20.67
2023-04-06T06:20:41.391Z,19.42
2023-04-06T06:23:07.793Z,19.63
2023-04-06T06:25:34.268Z,21.95
2023-04-06T06:28:03.067Z,22.42
2023-04-06T06:30:29.517Z,17.15
2023-04-06T06:32:58.509Z,18.75
2023-04-06T06:35:25.219Z,19.60
2023-04-06T06:37:51.647Z,16.00
2023-04-06T06:40:18.939Z,20.35
2023-04-06T06:42:45.875Z,22.08
2023-04-06T06:45:12.307Z,19.50
2023-04-06T06:47:38.716Z,15.02
2023-04-06T06:50:05.579Z,17.73
2023-04-06T06:52:32.335Z,16.13
2023-04-06T06:54:59.026Z,17.48
2023-04-06T06:57:25.861Z,22.67
2023-04-06T06:59:52.641Z,17.42
2023-04-06T07:02:19.191Z,15.25
2023-04-06T07:04:48.714Z,19.13
2023-04-06T07:07:15.314Z,13.00
2023-04-06T07:09:41.777Z,14.73
2023-04-06T07:12:08.188Z,9.40
2023-04-06T07:14:34.610Z,13.38
2023-04-06T07:17:03.402Z,12.45
2023-04-06T07:19:29.938Z,13.10
2023-04-06T07:21:57.310Z,11.52
2023-04-06T07:24:23.734Z,12.13
2023-04-06T07:26:50.174Z,13.10
2023-04-06T07:29:16.608Z,12.57
2023-04-06T07:31:43.077Z,8.02
2023-04-06T07:34:09.712Z,9.60
2023-04-06T07:36:36.463Z,9.35
2023-04-06T07:39:03.042Z,10.18
2023-04-06T07:41:29.410Z,8.93
2023-04-06T07:43:56.588Z,9.63
2023-04-06T07:46:23.054Z,10.93
2023-04-06T07:48:52.382Z,10.05
2023-04-06T07:51:18.885Z,9.48
2023-04-06T07:53:45.937Z,9.05
2023-04-06T07:56:13.319Z,9.50
2023-04-06T07:58:39.698Z,7.65
2023-04-06T08:01:06.237Z,8.23
2023-04-06T08:03:34.694Z,8.50
2023-04-06T08:06:01.482Z,6.65
2023-04-06T08:08:28.804Z,8.40
2023-04-06T08:10:55.580Z,12.20
2023-04-06T08:13:24.449Z,9.05
2023-04-06T08:15:51.017Z,8.95
2023-04-06T08:18:17.464Z,7.80
2023-04-06T08:20:43.912Z,9.10
2023-04-06T08:23:10.489Z,8.73
2023-04-06T08:25:37.103Z,9.73
2023-04-06T08:28:04.084Z,10.00
2023-04-06T08:30:30.545Z,10.90
2023-04-06T08:32:57.016Z,8.45
2023-04-06T08:35:23.533Z,7.70
2023-04-06T08:37:50.016Z,8.30
2023-04-06T08:40:16.438Z,8.43
2023-04-06T08:42:45.538Z,6.18
2023-04-06T08:45:12.544Z,7.45
2023-04-06T08:47:38.988Z,9.50
2023-04-06T08:50:05.734Z,8.75
2023-04-06T08:52:33.298Z,7.35
2023-04-06T08:54:59.705Z,8.43
2023-04-06T08:57:26.726Z,6.25
2023-04-06T08:59:53.522Z,6.40
2023-04-06T09:02:20.296Z,7.88
2023-04-06T09:04:48.585Z,6.35
2023-04-06T09:07:16.105Z,7.72
2023-04-06T09:09:48.571Z,7.65
2023-04-06T09:12:25.101Z,7.15
2023-04-06T09:14:51.571Z,6.25
2023-04-06T09:17:24.899Z,6.53
2023-04-06T09:19:51.737Z,8.15
2023-04-06T09:22:18.814Z,6.75
2023-04-06T09:24:52.892Z,6.72
2023-04-06T09:27:31.187Z,6.90
2023-04-06T09:30:04.330Z,7.47
2023-04-06T09:32:30.872Z,6.72
2023-04-06T09:35:06.873Z,7.50
2023-04-06T09:37:33.301Z,6.65
2023-04-06T09:40:06.809Z,6.13
2023-04-06T09:42:33.398Z,5.85
2023-04-06T09:44:59.827Z,5.28
2023-04-06T09:47:29.223Z,5.50
2023-04-06T09:49:59.982Z,6.20
2023-04-06T09:52:34.067Z,7.28
2023-04-06T09:55:02.470Z,7.65
2023-04-06T09:57:47.815Z,6.60
2023-04-06T10:00:18.860Z,6.95
2023-04-06T10:02:48.468Z,9.68
2023-04-06T10:05:21.992Z,8.45
2023-04-06T10:10:23.458Z,6.70
2023-04-06T10:12:50.751Z,7.50
2023-04-06T10:15:17.643Z,9.02
2023-04-06T10:17:45.721Z,7.65
2023-04-06T10:20:18.441Z,6.32
2023-04-06T10:22:51.656Z,6.32
2023-04-06T10:25:18.483Z,9.63
2023-04-06T10:27:44.901Z,8.02
2023-04-06T10:30:11.398Z,7.10
2023-04-06T10:32:38.512Z,7.28
2023-04-06T10:35:08.992Z,5.40
2023-04-06T10:37:52.719Z,7.65
2023-04-06T10:40:19.881Z,6.68
2023-04-06T10:42:46.392Z,6.80
2023-04-06T10:45:32.038Z,6.22
2023-04-06T10:47:58.807Z,6.85
2023-04-06T10:50:25.977Z,7.20
2023-04-06T10:53:02.768Z,7.03
2023-04-06T10:55:29.849Z,7.28
2023-04-06T10:57:56.278Z,9.63
2023-04-06T11:00:22.920Z,8.93
2023-04-06T11:02:49.585Z,7.32
2023-04-06T11:05:16.306Z,5.93
2023-04-06T11:07:42.846Z,6.82
2023-04-06T11:12:38.822Z,6.78
2023-04-06T11:15:06.887Z,10.25
2023-04-06T11:17:34.906Z,8.73
2023-04-06T11:20:05.021Z,9.70
2023-04-06T11:22:31.884Z,12.55
2023-04-06T11:27:37.563Z,7.65
2023-04-06T11:30:04.189Z,9.55
2023-04-06T11:32:30.749Z,8.90
2023-04-06T11:34:58.882Z,8.55
2023-04-06T11:37:27.370Z,11.48
2023-04-06T11:39:55.849Z,9.77
2023-04-06T11:42:28.846Z,10.93
2023-04-06T11:44:55.870Z,9.37
2023-04-06T11:47:28.379Z,9.32
2023-04-06T11:49:55.054Z,8.80
2023-04-06T11:52:21.621Z,12.13
2023-04-06T11:54:49.465Z,9.75
2023-04-06T11:57:16.274Z,8.18
2023-04-06T11:59:42.786Z,11.52
2023-04-06T12:02:09.760Z,8.20
2023-04-06T12:04:36.419Z,6.93
2023-04-06T12:07:03.259Z,10.77
2023-04-06T12:09:30.034Z,9.13
2023-04-06T12:11:56.979Z,8.30
2023-04-06T12:14:23.400Z,11.57
2023-04-06T12:16:49.919Z,10.35
2023-04-06T12:19:16.561Z,9.80
2023-04-06T12:21:43.437Z,9.98
2023-04-06T12:24:09.950Z,9.68
2023-04-06T12:26:38.176Z,11.18
2023-04-06T12:29:08.215Z,10.32
2023-04-06T12:31:39.983Z,9.25
2023-04-06T12:34:06.989Z,9.10
2023-04-06T12:36:35.859Z,8.50
2023-04-06T12:39:04.713Z,10.27
2023-04-06T12:41:31.337Z,8.90
2023-04-06T12:44:00.521Z,8.60
2023-04-06T12:46:27.336Z,10.77
2023-04-06T12:48:57.350Z,9.85
2023-04-06T12:51:23.746Z,10.95
2023-04-06T12:53:50.166Z,7.65
2023-04-06T12:56:18.381Z,7.18
2023-04-06T12:58:48.123Z,8.15
2023-04-06T13:01:14.923Z,11.25
2023-04-06T13:03:41.985Z,9.55
2023-04-06T13:06:12.122Z,8.32
2023-04-06T13:08:40.520Z,10.27
2023-04-06T13:11:09.863Z,8.95
2023-04-06T13:13:37.317Z,8.77
2023-04-06T13:16:05.851Z,9.80
2023-04-06T13:18:33.362Z,8.27
2023-04-06T13:21:00.892Z,7.75
2023-04-06T13:23:27.505Z,9.20
2023-04-06T13:26:00.922Z,11.50
2023-04-06T13:28:27.517Z,9.57
2023-04-06T13:30:54.475Z,8.68
2023-04-06T13:33:21.127Z,8.55
2023-04-06T13:35:47.963Z,8.60
2023-04-06T13:38:14.821Z,8.00
2023-04-06T13:40:43.455Z,9.95
2023-04-06T13:43:09.811Z,13.38
2023-04-06T13:45:36.278Z,7.95
2023-04-06T13:48:02.746Z,6.63
2023-04-06T13:50:29.339Z,7.68
2023-04-06T13:52:56.089Z,9.55
2023-04-06T13:55:22.680Z,6.43
2023-04-06T13:57:49.040Z,6.30
2023-04-06T14:00:15.879Z,7.20
2023-04-06T14:02:44.771Z,7.63
2023-04-06T14:05:11.428Z,6.03
2023-04-06T14:07:38.436Z,7.13
2023-04-06T14:10:05.449Z,7.90
2023-04-06T14:12:32.811Z,8.38
2023-04-06T14:14:59.178Z,9.43
2023-04-06T14:17:25.740Z,7.25
2023-04-06T14:19:52.415Z,10.45
2023-04-06T14:22:19.361Z,9.43
2023-04-06T14:24:46.046Z,8.63
2023-04-06T14:27:12.420Z,8.50
2023-04-06T14:29:39.246Z,8.18
2023-04-06T14:32:06.794Z,8.93
2023-04-06T14:34:33.159Z,10.43
2023-04-06T14:36:59.901Z,9.88
2023-04-06T14:39:26.636Z,8.88
2023-04-06T14:41:53.087Z,9.32
2023-04-06T14:44:22.123Z,9.75
2023-04-06T14:46:48.698Z,7.93
2023-04-06T14:49:18.056Z,8.63
2023-04-06T14:51:44.599Z,9.18
2023-04-06T14:54:11.103Z,11.52
2023-04-06T14:56:39.563Z,8.75
2023-04-06T14:59:06.034Z,9.02
2023-04-06T15:01:35.148Z,7.43
2023-04-06T15:04:01.766Z,12.07
2023-04-06T15:06:28.214Z,9.82
2023-04-06T15:08:56.972Z,10.30
2023-04-06T15:11:27.003Z,8.23
2023-04-06T15:13:53.724Z,10.43
2023-04-06T15:16:20.169Z,11.40
2023-04-06T15:18:46.630Z,8.25
2023-04-06T15:21:13.181Z,8.18
2023-04-06T15:23:39.938Z,9.77
2023-04-06T15:26:06.332Z,11.60
2023-04-06T15:28:32.741Z,8.05
2023-04-06T15:30:59.112Z,9.55
2023-04-06T15:33:25.557Z,8.90
2023-04-06T15:35:52.052Z,9.55
2023-04-06T15:38:18.460Z,9.02
2023-04-06T15:40:46.098Z,9.15
2023-04-06T15:43:13.044Z,11.50
2023-04-06T15:45:39.652Z,10.00
2023-04-06T15:48:07.354Z,15.38
2023-04-06T15:50:34.225Z,11.20
2023-04-06T15:53:00.931Z,11.55
2023-04-06T15:55:30.852Z,11.93
2023-04-06T15:57:57.341Z,8.77
2023-04-06T16:00:23.903Z,10.30
2023-04-06T16:02:52.938Z,8.90
2023-04-06T16:05:19.543Z,11.02
2023-04-06T16:07:46.090Z,9.95
2023-04-06T16:10:12.685Z,9.30
2023-04-06T16:12:42.360Z,10.15
2023-04-06T16:15:08.946Z,11.00
2023-04-06T16:17:35.395Z,11.77
2023-04-06T16:20:01.944Z,9.88
2023-04-06T16:22:28.738Z,10.52
2023-04-06T16:24:55.099Z,9.80
2023-04-06T16:27:21.460Z,12.30
2023-04-06T16:29:47.855Z,9.95
2023-04-06T16:32:14.264Z,10.93
2023-04-06T16:34:40.631Z,11.13
2023-04-06T16:37:07.132Z,11.20
2023-04-06T16:39:33.515Z,10.70
2023-04-06T16:42:02.294Z,9.68
2023-04-06T16:44:29.406Z,9.93
2023-04-06T16:46:56.502Z,12.45
2023-04-06T16:49:22.984Z,10.40
2023-04-06T16:51:49.818Z,8.95
2023-04-06T16:54:16.612Z,9.95
2023-04-06T16:56:43.112Z,10.00
2023-04-06T16:59:12.199Z,11.13
2023-04-06T17:01:41.348Z,9.98
2023-04-06T17:04:07.909Z,10.45
2023-04-06T17:06:34.320Z,12.75
2023-04-06T17:09:00.845Z,12.88
2023-04-06T17:11:35.880Z,12.80
2023-04-06T17:14:09.908Z,15.60
2023-04-06T17:16:36.311Z,11.25
2023-04-06T17:19:02.753Z,13.82
2023-04-06T17:21:29.141Z,16.10
2023-04-06T17:23:55.496Z,16.33
2023-04-06T17:26:24.249Z,16.20
2023-04-06T17:28:50.672Z,17.05
2023-04-06T17:31:19.498Z,11.73
2023-04-06T17:33:46.177Z,13.50
2023-04-06T17:36:12.928Z,13.85
2023-04-06T17:38:43.564Z,14.10
2023-04-06T17:41:11.280Z,11.15
2023-04-06T17:43:37.703Z,10.77
2023-04-06T17:46:04.208Z,13.48
2023-04-06T17:48:31.589Z,8.52
2023-04-06T17:50:58.014Z,12.00
2023-04-06T17:53:24.562Z,10.85
2023-04-06T17:55:51.077Z,10.18
2023-04-06T17:58:17.822Z,10.52
2023-04-06T18:00:44.234Z,7.22
2023-04-06T18:03:10.693Z,6.78
2023-04-06T18:05:37.171Z,6.85
2023-04-06T18:08:03.532Z,8.00
2023-04-06T18:10:29.910Z,6.97
2023-04-06T18:12:56.336Z,6.82
2023-04-06T18:15:22.778Z,8.95
2023-04-06T18:17:50.353Z,12.82
2023-04-06T18:20:17.249Z,13.50
2023-04-06T18:22:44.039Z,9.27
2023-04-06T18:25:10.593Z,11.70
2023-04-06T18:27:37.001Z,10.75
2023-04-06T18:30:06.868Z,11.90
2023-04-06T18:32:33.251Z,10.68
2023-04-06T18:34:59.650Z,9.10
2023-04-06T18:37:26.085Z,14.73
2023-04-06T18:39:53.703Z,14.65
2023-04-06T18:42:20.293Z,14.65
2023-04-06T18:44:46.948Z,16.55
2023-04-06T18:47:13.612Z,18.30
2023-04-06T18:49:40.311Z,17.30
2023-04-06T18:52:07.070Z,10.93
2023-04-06T18:54:35.860Z,8.80
2023-04-06T18:57:02.400Z,17.85
2023-04-06T18:59:30.345Z,12.15
2023-04-06T19:01:59.467Z,7.25
2023-04-06T19:04:26.418Z,9.35
2023-04-06T19:06:53.292Z,7.05
2023-04-06T19:09:19.782Z,7.43
2023-04-06T19:11:46.282Z,9.40
2023-04-06T19:14:12.648Z,7.50
2023-04-06T19:16:42.500Z,6.50
2023-04-06T19:19:09.738Z,9.20
2023-04-06T19:21:36.283Z,10.65
2023-04-06T19:24:03.135Z,112.10
2023-04-06T19:26:30.520Z,106.45
2023-04-06T19:28:57.029Z,41.72
2023-04-06T19:31:23.651Z,28.88
2023-04-06T19:33:50.196Z,17.02
2023-04-06T19:36:16.809Z,16.02
2023-04-06T19:38:43.435Z,16.35
2023-04-06T19:41:09.874Z,15.20
2023-04-06T19:43:36.297Z,13.60
2023-04-06T19:46:03.231Z,20.48
2023-04-06T19:48:30.016Z,20.65
2023-04-06T19:50:56.370Z,15.55
2023-04-06T19:53:23.006Z,14.68
2023-04-06T19:55:49.572Z,13.43
2023-04-06T19:58:16.006Z,18.90
2023-04-06T20:00:42.490Z,15.90
2023-04-06T20:03:09.152Z,14.10
2023-04-06T20:05:35.784Z,14.27
2023-04-06T20:08:02.216Z,11.65
2023-04-06T20:10:28.591Z,9.85
2023-04-06T20:12:54.963Z,14.68
2023-04-06T20:15:23.113Z,15.27
2023-04-06T20:17:49.655Z,12.35
2023-04-06T20:20:16.162Z,17.52
2023-04-06T20:22:42.713Z,15.40
2023-04-06T20:25:10.417Z,19.38
2023-04-06T20:27:36.828Z,61.83
2023-04-06T20:30:03.527Z,65.90
2023-04-06T20:32:29.920Z,50.65
2023-04-06T20:34:56.636Z,39.00
2023-04-06T20:37:23.054Z,29.55
2023-04-06T20:39:49.671Z,30.52
2023-04-06T20:42:16.465Z,28.13
2023-04-06T20:44:42.914Z,19.35
2023-04-06T20:47:09.283Z,56.25
2023-04-06T20:49:35.679Z,19.00
2023-04-06T20:52:02.232Z,14.52
2023-04-06T20:54:31.113Z,16.23
2023-04-06T20:57:00.848Z,14.20
2023-04-06T20:59:27.699Z,13.68
2023-04-06T21:01:54.266Z,13.20
2023-04-06T21:04:22.840Z,10.93
2023-04-06T21:06:51.972Z,22.90
2023-04-06T21:09:20.047Z,22.73
2023-04-06T21:11:46.944Z,29.40
2023-04-06T21:14:13.394Z,18.35
2023-04-06T21:16:39.834Z,11.63
2023-04-06T21:19:06.484Z,11.23
2023-04-06T21:21:33.007Z,12.45
2023-04-06T21:24:01.946Z,9.43
2023-04-06T21:26:28.427Z,12.10
2023-04-06T21:28:57.262Z,11.80
2023-04-06T21:31:23.722Z,13.10
2023-04-06T21:33:50.309Z,11.02
2023-04-06T21:36:16.894Z,10.27
2023-04-06T21:38:43.384Z,11.98
2023-04-06T21:41:09.773Z,15.25
2023-04-06T21:43:36.284Z,15.75
2023-04-06T21:46:02.915Z,12.30
2023-04-06T21:48:29.368Z,15.73
2023-04-06T21:50:55.888Z,15.80
2023-04-06T21:53:22.293Z,12.43
2023-04-06T21:55:48.713Z,15.07
2023-04-06T21:58:15.634Z,16.38
2023-04-06T22:00:42.070Z,15.40
2023-04-06T22:03:08.633Z,16.48
2023-04-06T22:05:36.140Z,17.63
2023-04-06T22:08:02.584Z,14.65
2023-04-06T22:10:29.376Z,13.68
2023-04-06T22:12:55.874Z,14.27
2023-04-06T22:15:22.271Z,13.88
2023-04-06T22:17:48.718Z,12.32
2023-04-06T22:20:15.076Z,17.58
2023-04-06T22:22:42.004Z,15.30
2023-04-06T22:25:08.675Z,14.70
2023-04-06T22:27:35.513Z,15.73
2023-04-06T22:30:02.207Z,15.52
2023-04-06T22:32:28.714Z,14.95
2023-04-06T22:34:55.378Z,15.18
2023-04-06T22:37:21.746Z,13.75
2023-04-06T22:39:48.203Z,13.80
2023-04-06T22:42:14.619Z,13.57
2023-04-06T22:44:41.114Z,15.82
2023-04-06T22:47:07.569Z,13.10
2023-04-06T22:49:34.107Z,11.63
2023-04-06T22:52:00.823Z,13.68
2023-04-06T22:54:27.240Z,15.20
2023-04-06T22:56:53.837Z,14.45
2023-04-06T22:59:20.640Z,12.63
2023-04-06T23:01:47.081Z,14.27
2023-04-06T23:04:13.606Z,16.45
2023-04-06T23:06:40.073Z,14.25
2023-04-06T23:09:06.491Z,14.80
2023-04-06T23:11:33.122Z,16.80
2023-04-06T23:14:02.078Z,17.52
2023-04-06T23:16:28.423Z,11.30
2023-04-06T23:18:54.850Z,12.88
2023-04-06T23:21:21.227Z,11.38
2023-04-06T23:23:47.652Z,13.40
2023-04-06T23:26:13.994Z,11.15
2023-04-06T23:28:40.467Z,11.45
2023-04-06T23:31:06.813Z,14.15
2023-04-06T23:33:33.291Z,11.35
2023-04-06T23:35:59.648Z,11.70
2023-04-06T23:38:26.321Z,11.82
2023-04-06T23:40:54.980Z,14.35
2023-04-06T23:43:21.334Z,13.38
2023-04-06T23:45:47.681Z,14.73
2023-04-06T23:48:14.011Z,12.02
2023-04-06T23:50:40.914Z,13.57
2023-04-06T23:53:07.378Z,15.23
2023-04-06T23:55:33.805Z,11.30
2023-04-06T23:58:00.424Z,11.52
